createdAt,value
2023-05-05T00:02:12.264Z,10.83
2023-05-05T00:04:38.821Z,10.82
2023-05-05T00:07:05.294Z,10.77
2023-05-05T00:09:31.804Z,10.67
2023-05-05T00:11:58.290Z,10.64
2023-05-05T00:14:24.824Z,10.72
2023-05-05T00:16:51.379Z,10.73
2023-05-05T00:19:17.870Z,10.66
2023-05-05T00:21:44.327Z,10.63
2023-05-05T00:24:11.116Z,10.57
2023-05-05T00:26:37.650Z,10.56
2023-05-05T00:29:04.185Z,10.52
2023-05-05T00:31:30.683Z,10.11
2023-05-05T00:33:57.233Z,10.12
2023-05-05T00:36:23.749Z,10.30
2023-05-05T00:38:50.253Z,10.33
2023-05-05T00:41:16.702Z,10.31
2023-05-05T00:43:43.265Z,10.36
2023-05-05T00:46:22.332Z,10.32
2023-05-05T00:48:48.958Z,10.31
2023-05-05T00:51:16.855Z,10.16
2023-05-05T00:53:45.138Z,10.05
2023-05-05T00:56:12.889Z,10.08
2023-05-05T00:58:42.339Z,10.17
2023-05-05T01:01:09.398Z,10.14
2023-05-05T01:03:38.056Z,10.16
2023-05-05T01:06:22.566Z,10.20
2023-05-05T01:09:08.184Z,10.28
2023-05-05T01:11:34.599Z,10.27
2023-05-05T01:14:16.664Z,10.10
2023-05-05T01:16:55.986Z,10.10
2023-05-05T01:19:49.708Z,10.00
2023-05-05T01:22:19.970Z,9.74
2023-05-05T01:25:05.406Z,9.89
2023-05-05T01:28:03.035Z,9.99
2023-05-05T01:30:57.527Z,10.03
2023-05-05T01:33:28.776Z,10.13
2023-05-05T01:35:58.258Z,10.06
2023-05-05T01:38:36.454Z,10.00
2023-05-05T01:41:17.049Z,10.07
2023-05-05T01:43:47.039Z,10.11
2023-05-05T01:46:15.885Z,10.14
2023-05-05T01:48:44.096Z,10.04
2023-05-05T01:51:12.636Z,9.93
2023-05-05T01:53:42.591Z,9.85
2023-05-05T01:56:10.641Z,9.88
2023-05-05T01:58:38.137Z,9.86
2023-05-05T02:01:05.339Z,9.84
2023-05-05T02:03:34.014Z,9.87
2023-05-05T02:06:01.630Z,9.87
2023-05-05T02:08:30.010Z,9.95
2023-05-05T02:10:57.674Z,9.94
2023-05-05T02:13:26.102Z,9.84
2023-05-05T02:15:53.344Z,9.84
2023-05-05T02:18:22.252Z,9.85
2023-05-05T02:20:48.873Z,9.82
2023-05-05T02:23:15.477Z,9.74
2023-05-05T02:25:45.738Z,9.69
2023-05-05T02:28:18.439Z,9.74
2023-05-05T02:30:59.389Z,9.62
2023-05-05T02:33:29.063Z,9.57
2023-05-05T02:36:00.043Z,9.50
2023-05-05T02:38:29.331Z,9.60
2023-05-05T02:40:57.985Z,9.55
2023-05-05T02:43:25.889Z,9.35
2023-05-05T02:45:52.378Z,9.35
2023-05-05T02:48:18.927Z,9.42
2023-05-05T02:50:45.401Z,9.34
2023-05-05T02:53:12.307Z,9.52
2023-05-05T02:55:45.515Z,9.57
2023-05-05T02:58:24.840Z,9.57
2023-05-05T03:01:18.004Z,9.33
2023-05-05T03:03:46.893Z,9.32
2023-05-05T03:06:21.296Z,9.36
2023-05-05T03:08:58.062Z,9.43
2023-05-05T03:11:35.512Z,9.28
2023-05-05T03:14:10.088Z,9.19
2023-05-05T03:16:39.442Z,9.25
2023-05-05T03:19:08.569Z,9.18
2023-05-05T03:21:35.487Z,9.12
2023-05-05T03:24:12.242Z,9.03
2023-05-05T03:26:38.687Z,9.07
2023-05-05T03:29:06.865Z,9.04
2023-05-05T03:31:33.537Z,9.04
2023-05-05T03:34:00.279Z,9.01
2023-05-05T03:36:29.413Z,8.88
2023-05-05T03:38:56.196Z,8.83
2023-05-05T03:41:23.629Z,8.80
2023-05-05T03:43:50.910Z,8.83
2023-05-05T03:46:17.494Z,8.92
2023-05-05T03:48:44.054Z,8.98
2023-05-05T03:51:10.621Z,9.03
2023-05-05T03:53:37.047Z,9.01
2023-05-05T03:56:03.698Z,8.91
2023-05-05T03:58:30.951Z,8.90
2023-05-05T04:00:57.485Z,8.77
2023-05-05T04:03:25.477Z,8.79
2023-05-05T04:05:52.130Z,8.84
2023-05-05T04:08:18.585Z,8.88
2023-05-05T04:10:48.974Z,8.87
2023-05-05T04:13:15.565Z,8.92
2023-05-05T04:15:48.304Z,8.96
2023-05-05T04:18:14.775Z,8.97
2023-05-05T04:20:41.329Z,8.97
2023-05-05T04:23:07.975Z,8.97
2023-05-05T04:25:34.530Z,8.94
2023-05-05T04:28:01.109Z,8.86
2023-05-05T04:30:27.628Z,8.91
2023-05-05T04:32:54.125Z,8.89
2023-05-05T04:35:21.227Z,8.92
2023-05-05T04:37:47.775Z,8.95
2023-05-05T04:40:14.414Z,8.92
2023-05-05T04:42:40.891Z,8.84
2023-05-05T04:45:08.876Z,8.84
2023-05-05T04:47:39.523Z,8.79
2023-05-05T04:50:07.226Z,8.80
2023-05-05T04:52:34.155Z,8.78
2023-05-05T04:55:01.137Z,8.87
2023-05-05T04:57:27.851Z,9.04
2023-05-05T04:59:54.366Z,9.13
2023-05-05T05:02:21.035Z,9.21
2023-05-05T05:04:47.536Z,9.28
2023-05-05T05:07:15.085Z,9.44
2023-05-05T05:09:41.620Z,9.60
2023-05-05T05:12:09.694Z,9.70
2023-05-05T05:14:43.296Z,9.82
2023-05-05T05:17:09.929Z,10.02
2023-05-05T05:19:36.397Z,10.08
2023-05-05T05:22:02.914Z,10.12
2023-05-05T05:24:29.952Z,10.33
2023-05-05T05:26:56.474Z,10.48
2023-05-05T05:29:23.012Z,10.50
2023-05-05T05:31:50.165Z,10.73
2023-05-05T05:34:16.756Z,10.78
2023-05-05T05:36:43.234Z,10.92
2023-05-05T05:39:09.729Z,10.97
2023-05-05T05:41:36.219Z,11.07
2023-05-05T05:44:05.580Z,11.15
2023-05-05T05:46:32.133Z,11.03
2023-05-05T05:48:58.612Z,10.95
2023-05-05T05:51:25.101Z,10.76
2023-05-05T05:53:51.803Z,10.69
2023-05-05T05:56:18.387Z,10.69
2023-05-05T05:58:45.280Z,10.68
2023-05-05T06:01:12.134Z,10.67
2023-05-05T06:03:38.694Z,10.77
2023-05-05T06:06:05.308Z,11.10
2023-05-05T06:08:31.918Z,11.18
2023-05-05T06:11:00.411Z,11.24
2023-05-05T06:13:26.923Z,11.55
2023-05-05T06:15:53.493Z,11.73
2023-05-05T06:18:20.232Z,11.86
2023-05-05T06:20:49.486Z,12.02
2023-05-05T06:23:16.035Z,12.06
2023-05-05T06:25:42.534Z,11.94
2023-05-05T06:28:09.105Z,11.68
2023-05-05T06:30:35.569Z,11.60
2023-05-05T06:33:02.201Z,11.60
2023-05-05T06:35:30.264Z,11.55
2023-05-05T06:37:56.734Z,11.64
2023-05-05T06:40:23.331Z,11.75
2023-05-05T06:42:49.808Z,11.83
2023-05-05T06:45:16.601Z,11.88
2023-05-05T06:47:44.238Z,11.90
2023-05-05T06:50:11.336Z,11.88
2023-05-05T06:52:37.966Z,11.82
2023-05-05T06:55:04.743Z,11.94
2023-05-05T06:57:31.258Z,11.81
2023-05-05T06:59:57.850Z,11.82
2023-05-05T07:02:26.711Z,12.00
2023-05-05T07:04:55.298Z,12.22
2023-05-05T07:07:21.910Z,12.33
2023-05-05T07:09:48.338Z,12.24
2023-05-05T07:12:14.809Z,12.39
2023-05-05T07:14:41.281Z,12.58
2023-05-05T07:17:07.719Z,12.56
2023-05-05T07:19:34.197Z,12.56
2023-05-05T07:22:00.688Z,12.74
2023-05-05T07:24:27.172Z,12.80
2023-05-05T07:26:53.685Z,12.84
2023-05-05T07:29:20.234Z,12.96
2023-05-05T07:31:46.872Z,13.09
2023-05-05T07:34:16.159Z,13.16
2023-05-05T07:36:42.725Z,13.41
2023-05-05T07:39:09.288Z,13.68
2023-05-05T07:41:35.780Z,13.80
2023-05-05T07:44:02.357Z,13.86
2023-05-05T07:46:28.928Z,13.75
2023-05-05T07:48:55.588Z,13.52
2023-05-05T07:51:22.142Z,13.63
2023-05-05T07:53:48.665Z,13.90
2023-05-05T07:56:15.183Z,14.05
2023-05-05T07:58:42.240Z,14.15
2023-05-05T08:01:10.969Z,14.28
2023-05-05T08:03:37.862Z,14.48
2023-05-05T08:06:09.702Z,14.53
2023-05-05T08:08:36.816Z,14.72
2023-05-05T08:11:04.001Z,14.75
2023-05-05T08:13:30.755Z,15.01
2023-05-05T08:15:57.412Z,15.21
2023-05-05T08:18:24.554Z,15.28
2023-05-05T08:20:51.246Z,15.38
2023-05-05T08:23:17.810Z,15.72
2023-05-05T08:25:44.465Z,15.80
2023-05-05T08:28:11.357Z,15.75
2023-05-05T08:30:38.310Z,15.64
2023-05-05T08:33:04.784Z,15.63
2023-05-05T08:35:31.325Z,15.88
2023-05-05T08:37:59.290Z,15.99
2023-05-05T08:40:32.262Z,15.85
2023-05-05T08:42:59.230Z,15.73
2023-05-05T08:45:28.089Z,15.72
2023-05-05T08:48:01.156Z,15.58
2023-05-05T08:50:29.651Z,15.59
2023-05-05T08:53:10.967Z,15.55
2023-05-05T08:55:56.074Z,15.52
2023-05-05T08:58:29.130Z,15.57
2023-05-05T09:00:56.497Z,15.49
2023-05-05T09:03:24.842Z,15.57
2023-05-05T09:05:51.837Z,15.63
2023-05-05T09:08:18.689Z,15.59
2023-05-05T09:10:46.108Z,15.62
2023-05-05T09:13:13.187Z,15.76
2023-05-05T09:15:41.328Z,15.89
2023-05-05T09:18:12.316Z,15.81
2023-05-05T09:20:40.032Z,15.77
2023-05-05T09:23:17.569Z,15.77
2023-05-05T09:25:46.378Z,15.84
2023-05-05T09:28:17.673Z,16.27
2023-05-05T09:30:46.039Z,16.75
2023-05-05T09:33:13.540Z,16.73
2023-05-05T09:35:50.775Z,16.86
2023-05-05T09:38:18.651Z,17.08
2023-05-05T09:40:47.718Z,17.20
2023-05-05T09:43:15.244Z,17.40
2023-05-05T09:45:41.908Z,17.10
2023-05-05T09:48:22.764Z,17.43
2023-05-05T09:50:49.564Z,17.59
2023-05-05T09:53:16.126Z,17.33
2023-05-05T09:55:52.979Z,17.09
2023-05-05T09:58:20.721Z,16.92
2023-05-05T10:00:47.674Z,16.90
2023-05-05T10:03:14.525Z,17.06
2023-05-05T10:05:51.966Z,17.08
2023-05-05T10:08:24.508Z,17.03
2023-05-05T10:11:01.431Z,16.89
2023-05-05T10:13:28.108Z,17.22
2023-05-05T10:15:56.690Z,17.19
2023-05-05T10:18:28.528Z,17.14
2023-05-05T10:20:54.950Z,17.09
2023-05-05T10:23:23.947Z,17.15
2023-05-05T10:25:55.203Z,17.13
2023-05-05T10:28:32.993Z,17.01
2023-05-05T10:31:07.641Z,16.92
2023-05-05T10:33:47.784Z,16.84
2023-05-05T10:36:14.940Z,16.62
2023-05-05T10:38:42.976Z,16.58
2023-05-05T10:41:11.568Z,16.62
2023-05-05T10:43:38.586Z,16.62
2023-05-05T10:46:06.249Z,16.58
2023-05-05T10:48:46.088Z,16.54
2023-05-05T10:51:39.261Z,16.50
2023-05-05T10:54:50.427Z,16.36
2023-05-05T10:57:22.322Z,16.22
2023-05-05T10:59:48.741Z,16.16
2023-05-05T11:02:22.100Z,16.14
2023-05-05T11:05:09.314Z,16.13
2023-05-05T11:07:36.763Z,16.20
2023-05-05T11:10:05.665Z,16.17
2023-05-05T11:12:53.289Z,16.24
2023-05-05T11:15:26.036Z,16.26
2023-05-05T11:17:53.643Z,16.27
2023-05-05T11:20:35.905Z,16.25
2023-05-05T11:23:02.361Z,16.28
2023-05-05T11:25:34.673Z,16.27
2023-05-05T11:28:11.191Z,16.20
2023-05-05T11:30:59.366Z,16.18
2023-05-05T11:33:26.378Z,16.25
2023-05-05T11:36:06.144Z,16.29
2023-05-05T11:38:36.065Z,16.26
2023-05-05T11:41:14.431Z,16.25
2023-05-05T11:43:41.793Z,16.22
2023-05-05T11:46:16.142Z,16.13
2023-05-05T11:48:49.949Z,16.08
2023-05-05T11:51:18.099Z,16.12
2023-05-05T11:53:47.275Z,16.09
2023-05-05T11:56:18.962Z,16.04
2023-05-05T11:58:46.769Z,16.02
2023-05-05T12:01:13.598Z,15.98
2023-05-05T12:03:41.116Z,15.92
2023-05-05T12:06:08.600Z,15.89
2023-05-05T12:08:39.306Z,15.88
2023-05-05T12:11:07.692Z,15.88
2023-05-05T12:13:34.825Z,15.92
2023-05-05T12:16:16.586Z,15.99
2023-05-05T12:18:43.189Z,16.07
2023-05-05T12:21:20.125Z,16.15
2023-05-05T12:23:46.962Z,16.22
2023-05-05T12:26:29.679Z,16.32
2023-05-05T12:28:57.572Z,16.39
2023-05-05T12:31:40.349Z,16.45
2023-05-05T12:34:08.988Z,16.55
2023-05-05T12:36:36.635Z,16.69
2023-05-05T12:39:05.035Z,16.74
2023-05-05T12:41:32.339Z,16.80
2023-05-05T12:44:00.105Z,16.88
2023-05-05T12:46:29.574Z,16.98
2023-05-05T12:49:06.738Z,17.08
2023-05-05T12:51:34.671Z,17.09
2023-05-05T12:54:11.730Z,17.14
2023-05-05T12:56:43.992Z,17.29
2023-05-05T12:59:12.637Z,17.40
2023-05-05T13:01:50.912Z,17.47
2023-05-05T13:04:19.369Z,17.66
2023-05-05T13:06:51.744Z,17.83
2023-05-05T13:09:28.222Z,17.77
2023-05-05T13:11:54.831Z,17.73
2023-05-05T13:14:21.655Z,17.94
2023-05-05T13:16:48.499Z,18.09
2023-05-05T13:19:15.347Z,18.15
2023-05-05T13:21:41.900Z,18.05
2023-05-05T13:24:23.482Z,17.93
2023-05-05T13:26:55.854Z,18.08
2023-05-05T13:29:24.251Z,18.11
2023-05-05T13:31:52.692Z,18.15
2023-05-05T13:34:19.235Z,18.28
2023-05-05T13:36:45.899Z,18.40
2023-05-05T13:39:12.726Z,18.42
2023-05-05T13:41:39.402Z,18.42
2023-05-05T13:44:05.952Z,18.30
2023-05-05T13:46:32.653Z,18.23
2023-05-05T13:48:59.207Z,18.23
2023-05-05T13:51:28.491Z,18.27
2023-05-05T13:53:55.123Z,18.27
2023-05-05T13:56:27.524Z,18.24
2023-05-05T13:58:54.423Z,18.22
2023-05-05T14:01:21.105Z,18.17
2023-05-05T14:03:47.654Z,18.17
2023-05-05T14:06:14.105Z,18.17
2023-05-05T14:08:40.580Z,18.16
2023-05-05T14:11:07.023Z,18.05
2023-05-05T14:13:33.488Z,18.01
2023-05-05T14:15:59.952Z,18.00
2023-05-05T14:18:26.879Z,17.96
2023-05-05T14:20:53.449Z,17.97
2023-05-05T14:23:19.934Z,17.91
2023-05-05T14:25:46.504Z,17.86
2023-05-05T14:28:12.977Z,17.78
2023-05-05T14:30:39.903Z,17.79
2023-05-05T14:33:06.875Z,17.71
2023-05-05T14:35:33.430Z,17.65
2023-05-05T14:37:59.895Z,17.62
2023-05-05T14:40:26.417Z,17.58
2023-05-05T14:42:52.928Z,17.54
2023-05-05T14:45:19.441Z,17.51
2023-05-05T14:47:45.992Z,17.58
2023-05-05T14:50:14.037Z,17.60
2023-05-05T14:52:40.929Z,17.62
2023-05-05T14:55:08.111Z,17.68
2023-05-05T14:57:34.771Z,17.74
2023-05-05T15:00:01.446Z,17.79
2023-05-05T15:02:27.991Z,17.88
2023-05-05T15:04:54.534Z,17.92
2023-05-05T15:07:22.552Z,17.98
2023-05-05T15:09:49.122Z,18.05
2023-05-05T15:12:15.689Z,18.09
2023-05-05T15:14:42.216Z,18.10
2023-05-05T15:17:08.716Z,18.08
2023-05-05T15:19:35.218Z,18.05
2023-05-05T15:22:01.777Z,17.97
2023-05-05T15:24:28.281Z,17.89
2023-05-05T15:26:54.780Z,17.83
2023-05-05T15:29:21.495Z,17.75
2023-05-05T15:31:48.032Z,17.69
2023-05-05T15:34:14.502Z,17.65
2023-05-05T15:36:40.955Z,17.60
2023-05-05T15:39:07.565Z,17.55
2023-05-05T15:41:34.488Z,17.52
2023-05-05T15:44:03.077Z,17.51
2023-05-05T15:46:33.369Z,17.48
2023-05-05T15:49:00.309Z,17.42
2023-05-05T15:51:27.288Z,17.37
2023-05-05T15:53:53.832Z,17.34
2023-05-05T15:56:20.372Z,17.34
2023-05-05T15:58:46.865Z,17.29
2023-05-05T16:01:13.337Z,17.22
2023-05-05T16:03:39.939Z,17.19
2023-05-05T16:06:06.838Z,17.16
2023-05-05T16:08:33.339Z,17.14
2023-05-05T16:10:59.815Z,17.15
2023-05-05T16:13:26.670Z,17.12
2023-05-05T16:15:53.143Z,17.08
2023-05-05T16:18:19.642Z,17.06
2023-05-05T16:20:48.090Z,17.01
2023-05-05T16:23:14.601Z,16.96
2023-05-05T16:25:41.074Z,16.91
2023-05-05T16:28:07.512Z,16.87
2023-05-05T16:30:34.027Z,16.85
2023-05-05T16:33:00.570Z,16.82
2023-05-05T16:35:27.138Z,16.84
2023-05-05T16:37:53.687Z,16.80
2023-05-05T16:40:20.147Z,16.73
2023-05-05T16:42:46.655Z,16.65
2023-05-05T16:45:13.190Z,16.60
2023-05-05T16:47:39.798Z,16.51
2023-05-05T16:50:07.058Z,16.46
2023-05-05T16:52:33.622Z,16.39
2023-05-05T16:55:00.112Z,16.39
2023-05-05T16:57:26.957Z,16.37
2023-05-05T16:59:56.037Z,16.25
2023-05-05T17:02:22.751Z,16.12
2023-05-05T17:04:49.267Z,15.90
2023-05-05T17:07:15.771Z,15.72
2023-05-05T17:09:42.266Z,15.65
2023-05-05T17:12:08.809Z,15.60
2023-05-05T17:14:35.502Z,15.51
2023-05-05T17:17:02.048Z,15.33
2023-05-05T17:19:28.888Z,15.17
2023-05-05T17:21:55.676Z,15.09
2023-05-05T17:24:22.706Z,15.00
2023-05-05T17:26:49.281Z,15.00
2023-05-05T17:29:19.774Z,14.96
2023-05-05T17:31:46.640Z,14.94
2023-05-05T17:34:16.423Z,14.91
2023-05-05T17:36:42.903Z,14.86
2023-05-05T17:39:11.306Z,14.84
2023-05-05T17:41:37.822Z,14.80
2023-05-05T17:44:07.048Z,14.83
2023-05-05T17:46:33.535Z,14.73
2023-05-05T17:49:00.501Z,14.69
2023-05-05T17:51:28.253Z,14.68
2023-05-05T17:53:54.736Z,14.65
2023-05-05T17:56:22.112Z,14.69
2023-05-05T17:58:48.896Z,14.65
2023-05-05T18:01:26.024Z,14.63
2023-05-05T18:03:52.896Z,14.59
2023-05-05T18:06:19.460Z,14.55
2023-05-05T18:08:46.548Z,14.57
2023-05-05T18:11:13.076Z,14.54
2023-05-05T18:13:39.636Z,14.52
2023-05-05T18:16:06.682Z,14.50
2023-05-05T18:18:33.334Z,14.44
2023-05-05T18:21:00.179Z,14.46
2023-05-05T18:23:26.756Z,14.51
2023-05-05T18:25:53.249Z,14.53
2023-05-05T18:28:20.318Z,14.48
2023-05-05T18:30:49.696Z,14.50
2023-05-05T18:33:16.231Z,14.48
2023-05-05T18:35:42.736Z,14.45
2023-05-05T18:38:09.277Z,14.45
2023-05-05T18:40:39.585Z,14.52
2023-05-05T18:43:06.110Z,14.59
2023-05-05T18:45:32.605Z,14.58
2023-05-05T18:47:59.645Z,14.48
2023-05-05T18:50:26.105Z,14.47
2023-05-05T18:52:52.613Z,14.50
2023-05-05T18:55:19.141Z,14.48
2023-05-05T18:57:45.834Z,14.54
2023-05-05T19:00:12.637Z,14.55
2023-05-05T19:02:39.170Z,14.51
2023-05-05T19:05:06.421Z,14.45
2023-05-05T19:07:35.741Z,14.42
2023-05-05T19:10:04.326Z,14.44
2023-05-05T19:12:30.878Z,14.44
2023-05-05T19:14:57.439Z,14.43
2023-05-05T19:17:23.953Z,14.51
2023-05-05T19:19:50.681Z,14.53
2023-05-05T19:22:21.773Z,14.49
2023-05-05T19:24:48.248Z,14.49
2023-05-05T19:27:16.811Z,14.50
2023-05-05T19:29:43.910Z,14.50
2023-05-05T19:32:10.648Z,14.46
2023-05-05T19:34:37.320Z,14.43
2023-05-05T19:37:03.854Z,14.40
2023-05-05T19:39:30.296Z,14.39
2023-05-05T19:41:57.280Z,14.44
2023-05-05T19:44:23.870Z,14.41
2023-05-05T19:46:50.600Z,14.39
2023-05-05T19:49:17.074Z,14.34
2023-05-05T19:51:43.808Z,14.31
2023-05-05T19:54:10.362Z,14.29
2023-05-05T19:56:36.945Z,14.28
2023-05-05T19:59:05.280Z,14.27
2023-05-05T20:01:33.074Z,14.24
2023-05-05T20:04:02.572Z,14.22
2023-05-05T20:06:30.329Z,14.21
2023-05-05T20:08:56.788Z,14.20
2023-05-05T20:11:24.690Z,14.16
2023-05-05T20:13:51.746Z,14.13
2023-05-05T20:16:18.432Z,14.13
2023-05-05T20:18:45.282Z,14.15
2023-05-05T20:21:17.864Z,14.16
2023-05-05T20:23:45.869Z,14.14
2023-05-05T20:26:13.229Z,14.12
2023-05-05T20:28:41.879Z,14.09
2023-05-05T20:31:10.763Z,14.06
2023-05-05T20:33:40.554Z,14.10
2023-05-05T20:36:07.363Z,14.11
2023-05-05T20:38:33.908Z,14.05
2023-05-05T20:41:00.366Z,13.99
2023-05-05T20:43:26.969Z,13.94
2023-05-05T20:45:53.513Z,13.93
2023-05-05T20:48:19.957Z,13.88
2023-05-05T20:50:51.128Z,13.91
2023-05-05T20:53:19.124Z,13.98
2023-05-05T20:55:45.909Z,14.02
2023-05-05T20:58:12.645Z,14.02
2023-05-05T21:00:39.292Z,14.04
2023-05-05T21:03:05.977Z,14.02
2023-05-05T21:05:32.608Z,13.96
2023-05-05T21:08:00.799Z,13.88
2023-05-05T21:10:29.163Z,13.87
2023-05-05T21:12:57.790Z,13.82
2023-05-05T21:15:24.998Z,13.77
2023-05-05T21:17:51.711Z,13.77
2023-05-05T21:20:21.293Z,13.77
2023-05-05T21:22:47.792Z,13.77
2023-05-05T21:25:17.184Z,13.76
2023-05-05T21:27:47.266Z,13.77
2023-05-05T21:30:14.183Z,13.79
2023-05-05T21:32:45.289Z,13.75
2023-05-05T21:35:11.963Z,13.78
2023-05-05T21:37:39.177Z,13.77
2023-05-05T21:40:13.253Z,13.79
2023-05-05T21:42:40.974Z,13.75
2023-05-05T21:45:08.029Z,13.75
2023-05-05T21:47:38.175Z,13.72
2023-05-05T21:50:05.482Z,13.74
2023-05-05T21:52:41.387Z,13.78
2023-05-05T21:55:10.517Z,13.73
2023-05-05T21:57:37.018Z,13.68
2023-05-05T22:00:05.928Z,13.66
2023-05-05T22:02:33.589Z,13.66
2023-05-05T22:05:00.121Z,13.65
2023-05-05T22:07:26.627Z,13.64
2023-05-05T22:09:53.079Z,13.65
2023-05-05T22:12:19.544Z,13.66
2023-05-05T22:14:46.118Z,13.69
2023-05-05T22:17:12.798Z,13.66
2023-05-05T22:19:42.054Z,13.61
2023-05-05T22:22:14.350Z,13.64
2023-05-05T22:24:44.312Z,13.67
2023-05-05T22:27:10.771Z,13.66
2023-05-05T22:29:37.622Z,13.62
2023-05-05T22:32:04.124Z,13.64
2023-05-05T22:34:30.704Z,13.57
2023-05-05T22:37:00.398Z,13.54
2023-05-05T22:39:27.132Z,13.60
2023-05-05T22:41:57.566Z,13.59
2023-05-05T22:44:27.602Z,13.54
2023-05-05T22:46:54.113Z,13.50
2023-05-05T22:49:21.792Z,13.52
2023-05-05T22:51:48.530Z,13.59
2023-05-05T22:54:15.022Z,13.61
2023-05-05T22:56:41.461Z,13.59
2023-05-05T22:59:10.488Z,13.54
2023-05-05T23:01:37.588Z,13.58
2023-05-05T23:04:04.544Z,13.58
2023-05-05T23:06:32.150Z,13.62
2023-05-05T23:08:58.665Z,13.60
2023-05-05T23:11:26.357Z,13.48
2023-05-05T23:13:53.376Z,13.34
2023-05-05T23:16:19.892Z,13.35
2023-05-05T23:18:46.429Z,13.39
2023-05-05T23:21:12.903Z,13.46
2023-05-05T23:23:42.235Z,13.41
2023-05-05T23:26:13.150Z,13.30
2023-05-05T23:28:42.318Z,13.30
2023-05-05T23:31:09.162Z,13.34
2023-05-05T23:33:35.633Z,13.38
2023-05-05T23:36:02.127Z,13.36
2023-05-05T23:38:28.622Z,13.32
2023-05-05T23:40:58.020Z,13.30
2023-05-05T23:43:24.804Z,13.33
2023-05-05T23:45:51.547Z,13.33
2023-05-05T23:48:18.030Z,13.35
2023-05-05T23:50:44.470Z,13.31
2023-05-05T23:53:10.990Z,13.22
2023-05-05T23:55:40.052Z,13.17
2023-05-05T23:58:06.585Z,13.09
